createdAt,value
2018-12-17T00:00:30.823Z,28.63
2018-12-17T00:02:59.417Z,27.10
2018-12-17T00:05:28.003Z,32.80
2018-12-17T00:07:56.484Z,32.63
2018-12-17T00:10:25.096Z,31.87
2018-12-17T00:12:53.599Z,35.40
2018-12-17T00:15:22.214Z,31.07
2018-12-17T00:17:51.263Z,27.87
2018-12-17T00:20:19.773Z,31.63
2018-12-17T00:22:48.554Z,30.97
2018-12-17T00:25:17.060Z,28.43
2018-12-17T00:27:46.206Z,32.13
2018-12-17T00:30:14.713Z,28.27
2018-12-17T00:32:43.283Z,35.40
2018-12-17T00:35:11.774Z,31.13
2018-12-17T00:37:40.276Z,33.60
2018-12-17T00:40:09.382Z,32.70
2018-12-17T00:42:37.888Z,31.03
2018-12-17T00:45:06.476Z,30.70
2018-12-17T00:47:35.033Z,30.33
2018-12-17T00:50:04.352Z,31.13
2018-12-17T00:52:32.893Z,30.90
2018-12-17T00:55:02.126Z,30.07
2018-12-17T00:57:30.688Z,32.37
2018-12-17T00:59:59.183Z,29.03
2018-12-17T01:02:27.718Z,30.20
2018-12-17T01:04:56.845Z,23.33
2018-12-17T01:07:32.822Z,29.00
2018-12-17T01:10:01.366Z,29.93
2018-12-17T01:12:29.882Z,29.27
2018-12-17T01:14:58.544Z,26.97
2018-12-17T01:17:27.142Z,31.57
2018-12-17T01:19:55.687Z,27.70
2018-12-17T01:22:24.215Z,25.70
2018-12-17T01:24:52.691Z,28.00
2018-12-17T01:27:21.198Z,30.40
2018-12-17T01:29:49.694Z,28.67
2018-12-17T01:32:18.288Z,27.43
2018-12-17T01:34:46.849Z,23.07
2018-12-17T01:37:15.327Z,28.83
2018-12-17T01:39:43.841Z,29.80
2018-12-17T01:42:12.345Z,28.17
2018-12-17T01:44:40.832Z,25.97
2018-12-17T01:47:09.341Z,24.87
2018-12-17T01:49:37.834Z,24.57
2018-12-17T01:52:06.379Z,26.17
2018-12-17T01:54:34.912Z,25.47
2018-12-17T01:57:03.390Z,26.07
2018-12-17T01:59:31.976Z,29.53
2018-12-17T02:02:00.518Z,25.77
2018-12-17T02:04:29.211Z,27.67
2018-12-17T02:06:57.687Z,25.27
2018-12-17T02:09:26.203Z,27.83
2018-12-17T02:11:54.677Z,21.80
2018-12-17T02:14:23.178Z,25.83
2018-12-17T02:16:51.670Z,25.70
2018-12-17T02:19:20.625Z,26.60
2018-12-17T02:21:49.122Z,24.77
2018-12-17T02:24:18.262Z,28.13
2018-12-17T02:26:47.659Z,31.50
2018-12-17T02:29:16.164Z,30.93
2018-12-17T02:31:44.736Z,27.63
2018-12-17T02:34:13.825Z,26.60
2018-12-17T02:36:42.404Z,31.17
2018-12-17T02:39:10.881Z,28.93
2018-12-17T02:41:39.449Z,22.90
2018-12-17T02:44:14.576Z,27.43
2018-12-17T02:46:43.131Z,23.70
2018-12-17T02:49:11.938Z,26.70
2018-12-17T02:51:40.420Z,26.07
2018-12-17T02:54:08.969Z,30.53
2018-12-17T02:56:37.466Z,25.33
2018-12-17T02:59:05.957Z,25.93
2018-12-17T03:01:34.455Z,25.97
2018-12-17T03:04:02.955Z,28.30
2018-12-17T03:06:31.441Z,32.63
2018-12-17T03:08:59.934Z,31.20
2018-12-17T03:11:28.409Z,31.17
2018-12-17T03:13:56.896Z,39.07
2018-12-17T03:16:25.482Z,37.60
2018-12-17T03:18:54.189Z,43.57
2018-12-17T03:21:22.668Z,38.60
2018-12-17T03:23:51.841Z,43.30
2018-12-17T03:26:20.363Z,47.77
2018-12-17T03:28:51.824Z,39.73
2018-12-17T03:31:19.379Z,46.53
2018-12-17T03:33:47.846Z,42.03
2018-12-17T03:36:16.340Z,38.70
2018-12-17T03:38:44.871Z,37.03
2018-12-17T03:41:13.367Z,39.57
2018-12-17T03:43:41.848Z,35.63
2018-12-17T03:46:10.387Z,37.97
2018-12-17T03:48:39.070Z,38.83
2018-12-17T03:51:07.544Z,43.10
2018-12-17T03:53:36.032Z,50.63
2018-12-17T03:56:04.537Z,47.27
2018-12-17T03:58:33.021Z,47.80
2018-12-17T04:01:01.527Z,53.30
2018-12-17T04:03:30.089Z,68.73
2018-12-17T04:05:58.596Z,62.23
2018-12-17T04:08:27.081Z,45.67
2018-12-17T04:10:55.567Z,42.73
2018-12-17T04:13:24.722Z,46.67
2018-12-17T04:15:53.149Z,47.30
2018-12-17T04:18:22.158Z,51.40
2018-12-17T04:20:50.732Z,41.67
2018-12-17T04:23:19.231Z,39.73
2018-12-17T04:25:47.744Z,45.03
2018-12-17T04:28:16.256Z,41.20
2018-12-17T04:30:44.743Z,42.33
2018-12-17T04:33:13.225Z,39.10
2018-12-17T04:35:41.698Z,41.67
2018-12-17T04:38:10.201Z,40.73
2018-12-17T04:40:38.689Z,37.17
2018-12-17T04:43:08.681Z,39.03
2018-12-17T04:45:39.846Z,42.00
2018-12-17T04:48:08.345Z,35.80
2018-12-17T04:50:36.833Z,39.87
2018-12-17T04:53:05.346Z,44.33
2018-12-17T04:55:33.845Z,41.87
2018-12-17T04:58:03.900Z,36.83
2018-12-17T05:00:32.380Z,41.23
2018-12-17T05:03:01.161Z,36.50
2018-12-17T05:05:29.674Z,39.43
2018-12-17T05:07:58.162Z,46.27
2018-12-17T05:10:26.659Z,40.80
2018-12-17T05:12:55.280Z,39.60
2018-12-17T05:15:23.769Z,42.93
2018-12-17T05:17:52.323Z,43.83
2018-12-17T05:20:20.906Z,41.00
2018-12-17T05:22:49.410Z,45.57
2018-12-17T05:25:17.902Z,48.57
2018-12-17T05:27:46.372Z,47.80
2018-12-17T05:30:14.892Z,42.20
2018-12-17T05:32:43.446Z,48.37
2018-12-17T05:35:12.103Z,51.83
2018-12-17T05:37:40.576Z,51.60
2018-12-17T05:40:09.162Z,49.57
2018-12-17T05:42:37.722Z,43.93
2018-12-17T05:45:06.321Z,43.47
2018-12-17T05:47:34.851Z,47.23
2018-12-17T05:50:03.570Z,45.87
2018-12-17T05:52:32.019Z,47.97
2018-12-17T05:55:00.575Z,46.07
2018-12-17T05:57:29.144Z,49.80
2018-12-17T05:59:57.618Z,41.40
2018-12-17T06:02:26.114Z,48.50
2018-12-17T06:04:54.588Z,52.13
2018-12-17T06:07:23.091Z,54.57
2018-12-17T06:09:51.570Z,48.27
2018-12-17T06:12:20.064Z,47.63
2018-12-17T06:14:48.558Z,54.27
2018-12-17T06:17:17.033Z,58.07
2018-12-17T06:19:45.503Z,53.80
2018-12-17T06:22:14.002Z,49.23
2018-12-17T06:24:42.497Z,49.70
2018-12-17T06:27:11.029Z,56.70
2018-12-17T06:29:39.510Z,54.70
2018-12-17T06:32:08.007Z,60.03
2018-12-17T06:34:36.485Z,51.37
2018-12-17T06:37:04.995Z,55.63
2018-12-17T06:39:33.495Z,57.53
2018-12-17T06:42:02.626Z,60.03
2018-12-17T06:44:31.109Z,63.63
2018-12-17T06:46:59.632Z,48.87
2018-12-17T06:49:28.105Z,57.03
2018-12-17T06:51:56.764Z,50.63
2018-12-17T06:54:27.442Z,48.00
2018-12-17T06:56:55.939Z,47.47
2018-12-17T06:59:24.538Z,50.43
2018-12-17T07:01:53.026Z,43.20
2018-12-17T07:04:21.529Z,50.63
2018-12-17T07:06:50.086Z,49.50
2018-12-17T07:09:18.585Z,46.73
2018-12-17T07:11:47.090Z,46.30
2018-12-17T07:14:15.571Z,47.63
2018-12-17T07:16:44.073Z,39.97
2018-12-17T07:19:12.557Z,42.07
2018-12-17T07:21:41.157Z,37.00
2018-12-17T07:24:09.674Z,34.40
2018-12-17T07:26:38.173Z,36.87
2018-12-17T07:29:06.637Z,34.43
2018-12-17T07:31:36.130Z,26.53
2018-12-17T07:34:04.708Z,29.80
2018-12-17T07:36:33.222Z,24.97
2018-12-17T07:39:02.433Z,28.87
2018-12-17T07:41:30.950Z,25.53
2018-12-17T07:43:59.429Z,22.53
2018-12-17T07:46:27.954Z,22.77
2018-12-17T07:48:56.433Z,23.50
2018-12-17T07:51:24.914Z,29.93
2018-12-17T07:53:53.406Z,24.87
2018-12-17T07:56:21.878Z,23.77
2018-12-17T07:58:50.369Z,21.87
2018-12-17T08:01:18.862Z,22.57
2018-12-17T08:03:47.365Z,21.13
2018-12-17T08:06:16.133Z,21.70
2018-12-17T08:08:44.786Z,22.13
2018-12-17T08:11:15.329Z,19.90
2018-12-17T08:13:43.930Z,19.20
2018-12-17T08:16:12.458Z,24.97
2018-12-17T08:18:40.965Z,19.47
2018-12-17T08:21:09.441Z,23.40
2018-12-17T08:23:38.048Z,20.03
2018-12-17T08:26:06.542Z,22.47
2018-12-17T08:28:35.054Z,18.90
2018-12-17T08:31:03.524Z,20.57
2018-12-17T08:33:32.065Z,20.37
2018-12-17T08:36:00.571Z,20.57
2018-12-17T08:38:29.082Z,22.07
2018-12-17T08:40:57.676Z,18.60
2018-12-17T08:43:26.197Z,18.97
2018-12-17T08:45:54.728Z,18.57
2018-12-17T08:48:23.365Z,20.10
2018-12-17T08:50:51.932Z,18.13
2018-12-17T08:53:20.437Z,18.33
2018-12-17T08:55:48.923Z,16.07
2018-12-17T08:58:17.617Z,23.53
2018-12-17T09:00:46.129Z,21.50
2018-12-17T09:03:14.842Z,20.70
2018-12-17T09:05:43.352Z,20.60
2018-12-17T09:08:11.868Z,20.30
2018-12-17T09:10:40.359Z,24.00
2018-12-17T09:13:08.905Z,22.40
2018-12-17T09:15:37.409Z,20.10
2018-12-17T09:18:07.292Z,27.20
2018-12-17T09:20:35.885Z,20.57
2018-12-17T09:23:04.489Z,18.50
2018-12-17T09:25:32.972Z,24.73
2018-12-17T09:28:01.492Z,19.53
2018-12-17T09:30:30.080Z,17.70
2018-12-17T09:32:58.636Z,20.30
2018-12-17T09:35:27.293Z,18.83
2018-12-17T09:37:55.838Z,21.10
2018-12-17T09:40:24.420Z,20.20
2018-12-17T09:42:52.921Z,21.83
2018-12-17T09:45:21.558Z,26.27
2018-12-17T09:47:50.090Z,20.70
2018-12-17T09:50:18.573Z,18.77
2018-12-17T09:52:47.170Z,19.33
2018-12-17T09:55:15.704Z,20.97
2018-12-17T09:57:44.270Z,23.33
2018-12-17T10:00:12.982Z,19.00
2018-12-17T10:02:41.485Z,21.40
2018-12-17T10:05:10.037Z,20.37
2018-12-17T10:07:38.580Z,18.53
2018-12-17T10:10:07.562Z,21.43
2018-12-17T10:12:36.094Z,21.23
2018-12-17T10:15:05.046Z,20.87
2018-12-17T10:17:33.571Z,17.77
2018-12-17T10:20:02.130Z,19.13
2018-12-17T10:22:30.664Z,20.40
2018-12-17T10:24:59.239Z,17.90
2018-12-17T10:27:27.767Z,21.00
2018-12-17T10:29:56.223Z,18.23
2018-12-17T10:32:24.737Z,18.55
2018-12-17T10:34:53.280Z,19.03
2018-12-17T10:37:21.846Z,16.13
2018-12-17T10:39:50.330Z,21.13
2018-12-17T10:42:19.103Z,23.33
2018-12-17T10:44:48.015Z,19.77
2018-12-17T10:47:16.894Z,19.27
2018-12-17T10:49:45.782Z,20.47
2018-12-17T10:52:14.717Z,25.13
2018-12-17T10:54:43.601Z,23.00
2018-12-17T10:57:12.950Z,19.47
2018-12-17T10:59:41.908Z,23.20
2018-12-17T11:02:12.969Z,21.50
2018-12-17T11:04:46.286Z,20.77
2018-12-17T11:07:15.230Z,21.00
2018-12-17T11:09:44.137Z,26.33
2018-12-17T11:12:13.016Z,21.80
2018-12-17T11:14:42.046Z,21.47
2018-12-17T11:17:10.892Z,22.47
2018-12-17T11:19:39.778Z,22.93
2018-12-17T11:22:08.645Z,22.03
2018-12-17T11:24:38.091Z,24.33
2018-12-17T11:27:06.958Z,27.73
2018-12-17T11:29:35.850Z,28.13
2018-12-17T11:32:11.486Z,23.03
2018-12-17T11:34:37.466Z,25.23
2018-12-17T11:37:06.290Z,24.07
2018-12-17T11:39:35.167Z,24.77
2018-12-17T11:42:04.045Z,25.63
2018-12-17T11:44:33.020Z,25.43
2018-12-17T11:47:02.217Z,25.63
2018-12-17T11:49:31.098Z,24.07
2018-12-17T11:52:01.277Z,28.33
2018-12-17T11:54:30.400Z,29.67
2018-12-17T11:59:09.562Z,28.93
2018-12-17T12:01:38.435Z,27.63
2018-12-17T12:04:07.328Z,28.83
2018-12-17T12:06:36.232Z,23.47
2018-12-17T12:09:06.654Z,22.20
2018-12-17T12:11:35.533Z,25.57
2018-12-17T12:14:04.608Z,26.80
2018-12-17T12:16:33.472Z,25.10
2018-12-17T12:19:02.867Z,30.00
2018-12-17T12:21:31.749Z,22.17
2018-12-17T12:24:00.617Z,26.50
2018-12-17T12:26:29.470Z,28.17
2018-12-17T12:28:58.422Z,25.67
2018-12-17T12:31:27.268Z,26.90
2018-12-17T12:33:56.192Z,26.50
2018-12-17T12:36:25.244Z,28.93
2018-12-17T12:38:54.106Z,28.47
2018-12-17T12:41:22.958Z,29.57
2018-12-17T12:43:51.860Z,24.10
2018-12-17T12:46:20.701Z,25.80
2018-12-17T12:48:49.594Z,29.97
2018-12-17T12:51:18.794Z,27.53
2018-12-17T12:53:47.685Z,27.67
2018-12-17T12:56:16.577Z,30.70
2018-12-17T12:58:45.514Z,27.70
2018-12-17T13:01:14.358Z,27.33
2018-12-17T13:03:43.225Z,34.10
2018-12-17T13:06:12.071Z,33.00
2018-12-17T13:08:40.930Z,28.67
2018-12-17T13:11:09.778Z,30.43
2018-12-17T13:13:38.704Z,30.47
2018-12-17T13:16:07.670Z,32.93
2018-12-17T13:18:36.642Z,32.07
2018-12-17T13:21:06.342Z,31.03
2018-12-17T13:23:35.396Z,33.53
2018-12-17T13:26:04.586Z,33.23
2018-12-17T13:28:33.556Z,100.40
2018-12-17T13:31:03.590Z,95.17
2018-12-17T13:33:32.497Z,76.23
2018-12-17T13:36:01.516Z,76.53
2018-12-17T13:38:31.235Z,30.83
2018-12-17T13:41:01.643Z,30.17
2018-12-17T13:43:30.518Z,34.30
2018-12-17T13:45:59.427Z,55.33
2018-12-17T13:48:28.329Z,29.80
2018-12-17T13:51:01.445Z,51.43
2018-12-17T13:53:33.260Z,34.10
2018-12-17T13:56:02.399Z,26.13
2018-12-17T13:58:31.248Z,24.50
2018-12-17T14:01:01.423Z,22.23
2018-12-17T14:03:31.069Z,26.20
2018-12-17T14:06:00.003Z,20.13
2018-12-17T14:08:28.891Z,20.70
2018-12-17T14:10:57.782Z,21.03
2018-12-17T14:13:26.677Z,20.87
2018-12-17T14:16:02.704Z,19.67
2018-12-17T14:18:37.003Z,20.53
2018-12-17T14:21:11.285Z,19.67
2018-12-17T14:23:40.793Z,17.53
2018-12-17T14:26:10.095Z,17.07
2018-12-17T14:28:38.953Z,19.27
2018-12-17T14:31:07.844Z,17.20
2018-12-17T14:33:36.821Z,17.83
2018-12-17T14:36:09.647Z,17.33
2018-12-17T14:38:39.090Z,16.23
2018-12-17T14:41:08.095Z,14.87
2018-12-17T14:43:36.974Z,17.83
2018-12-17T14:46:05.869Z,12.63
2018-12-17T14:48:34.746Z,14.73
2018-12-17T14:51:04.781Z,13.83
2018-12-17T14:53:34.277Z,15.83
2018-12-17T14:56:03.969Z,15.00
2018-12-17T14:58:32.858Z,13.27
2018-12-17T15:01:01.729Z,42.27
2018-12-17T15:03:30.593Z,20.20
2018-12-17T15:05:59.448Z,45.13
2018-12-17T15:08:28.272Z,22.80
2018-12-17T15:10:57.201Z,25.23
2018-12-17T15:13:26.091Z,18.50
2018-12-17T15:15:54.983Z,24.57
2018-12-17T15:18:24.001Z,17.57
2018-12-17T15:20:52.983Z,16.10
2018-12-17T15:23:22.211Z,17.83
2018-12-17T15:25:51.296Z,26.17
2018-12-17T15:28:20.073Z,14.13
2018-12-17T15:30:49.072Z,17.63
2018-12-17T15:33:17.669Z,14.97
2018-12-17T15:35:46.145Z,13.00
2018-12-17T15:38:14.661Z,19.30
2018-12-17T15:40:43.182Z,13.93
2018-12-17T15:43:11.728Z,16.90
2018-12-17T15:45:40.305Z,14.27
2018-12-17T15:48:08.831Z,15.37
2018-12-17T15:50:37.377Z,15.77
2018-12-17T15:53:05.885Z,16.77
2018-12-17T15:55:34.390Z,17.70
2018-12-17T15:58:02.913Z,18.57
2018-12-17T16:00:31.420Z,18.97
2018-12-17T16:02:59.923Z,15.27
2018-12-17T16:05:28.555Z,16.50
2018-12-17T16:07:57.116Z,14.47
2018-12-17T16:10:25.990Z,18.00
2018-12-17T16:12:54.612Z,12.80
2018-12-17T16:15:24.847Z,16.17
2018-12-17T16:17:53.363Z,18.47
2018-12-17T16:20:22.973Z,21.13
2018-12-17T16:22:51.516Z,15.50
2018-12-17T16:25:20.042Z,17.93
2018-12-17T16:27:48.885Z,15.93
2018-12-17T16:30:17.574Z,15.77
2018-12-17T16:32:46.566Z,17.03
2018-12-17T16:35:15.089Z,19.43
2018-12-17T16:37:43.779Z,25.37
2018-12-17T16:40:12.480Z,19.60
2018-12-17T16:42:41.010Z,18.17
2018-12-17T16:45:09.802Z,17.43
2018-12-17T16:47:38.276Z,17.53
2018-12-17T16:50:07.743Z,17.17
2018-12-17T16:52:36.348Z,23.17
2018-12-17T16:55:05.587Z,20.43
2018-12-17T16:57:34.512Z,19.67
2018-12-17T17:00:04.862Z,20.80
2018-12-17T17:02:33.743Z,19.53
2018-12-17T17:05:03.107Z,19.37
2018-12-17T17:07:32.294Z,21.70
2018-12-17T17:10:08.709Z,18.67
2018-12-17T17:12:37.551Z,21.33
2018-12-17T17:15:10.136Z,19.60
2018-12-17T17:17:39.002Z,21.43
2018-12-17T17:20:09.632Z,19.77
2018-12-17T17:22:38.583Z,23.50
2018-12-17T17:25:07.472Z,22.73
2018-12-17T17:27:36.415Z,19.43
2018-12-17T17:30:06.602Z,20.87
2018-12-17T17:32:35.461Z,17.13
2018-12-17T17:35:05.140Z,21.67
2018-12-17T17:37:34.063Z,16.33
2018-12-17T17:40:03.495Z,18.07
2018-12-17T17:42:33.001Z,21.23
2018-12-17T17:45:02.325Z,16.40
2018-12-17T17:47:31.182Z,16.97
2018-12-17T17:50:00.058Z,16.97
2018-12-17T17:52:29.615Z,19.53
2018-12-17T17:54:58.537Z,20.40
2018-12-17T17:57:27.514Z,18.43
2018-12-17T17:59:56.585Z,18.33
2018-12-17T18:02:25.495Z,17.37
2018-12-17T18:04:54.386Z,18.13
2018-12-17T18:07:23.597Z,24.10
2018-12-17T18:09:52.444Z,23.93
2018-12-17T18:12:21.347Z,22.30
2018-12-17T18:14:50.248Z,26.43
2018-12-17T18:17:19.293Z,22.10
2018-12-17T18:19:48.275Z,16.23
2018-12-17T18:22:18.165Z,16.47
2018-12-17T18:24:47.035Z,19.30
2018-12-17T18:27:15.981Z,21.53
2018-12-17T18:29:45.050Z,18.17
2018-12-17T18:32:13.913Z,20.30
2018-12-17T18:34:42.804Z,20.30
2018-12-17T18:37:11.727Z,20.87
2018-12-17T18:39:41.332Z,21.77
2018-12-17T18:42:10.378Z,28.20
2018-12-17T18:44:39.431Z,37.17
2018-12-17T18:47:08.303Z,30.27
2018-12-17T18:49:37.327Z,25.63
2018-12-17T18:52:06.928Z,31.63
2018-12-17T18:54:35.939Z,40.70
2018-12-17T18:57:04.889Z,25.97
2018-12-17T18:59:33.748Z,25.83
2018-12-17T19:02:03.262Z,24.43
2018-12-17T19:04:32.279Z,20.47
2018-12-17T19:07:03.706Z,20.57
2018-12-17T19:09:32.859Z,19.23
2018-12-17T19:12:02.311Z,19.53
2018-12-17T19:14:31.542Z,18.20
2018-12-17T19:17:00.595Z,22.27
2018-12-17T19:19:29.449Z,21.70
2018-12-17T19:21:58.310Z,25.73
2018-12-17T19:24:27.505Z,18.40
2018-12-17T19:26:56.479Z,20.97
2018-12-17T19:29:25.383Z,17.73
2018-12-17T19:31:54.278Z,23.10
2018-12-17T19:34:23.821Z,23.27
2018-12-17T19:36:53.375Z,17.40
2018-12-17T19:39:22.577Z,18.83
2018-12-17T19:41:51.505Z,21.23
2018-12-17T19:44:20.370Z,18.13
2018-12-17T19:46:49.310Z,17.10
2018-12-17T19:49:18.210Z,18.80
2018-12-17T19:51:47.135Z,22.47
2018-12-17T19:54:16.167Z,23.93
2018-12-17T19:56:45.057Z,20.50
2018-12-17T19:59:14.271Z,18.80
2018-12-17T20:01:43.239Z,20.03
2018-12-17T20:04:12.210Z,25.73
2018-12-17T20:06:41.400Z,25.27
2018-12-17T20:09:10.314Z,24.03
2018-12-17T20:11:39.221Z,21.13
2018-12-17T20:14:08.125Z,25.37
2018-12-17T20:16:37.298Z,20.97
2018-12-17T20:19:07.044Z,21.30
2018-12-17T20:21:36.724Z,22.23
2018-12-17T20:24:05.882Z,22.67
2018-12-17T20:26:35.716Z,16.90
2018-12-17T20:29:05.031Z,19.73
2018-12-17T20:31:36.038Z,18.63
2018-12-17T20:34:05.618Z,23.23
2018-12-17T20:36:35.586Z,22.97
2018-12-17T20:39:07.597Z,19.57
2018-12-17T20:41:37.821Z,20.40
2018-12-17T20:44:07.211Z,22.70
2018-12-17T20:46:36.202Z,24.37
2018-12-17T20:49:05.266Z,24.70
2018-12-17T20:51:34.660Z,18.37
2018-12-17T20:54:03.814Z,17.73
2018-12-17T20:56:33.874Z,19.83
2018-12-17T20:59:02.874Z,21.20
2018-12-17T21:01:31.812Z,23.57
2018-12-17T21:04:00.769Z,17.43
2018-12-17T21:06:29.670Z,21.00
2018-12-17T21:08:58.551Z,19.87
2018-12-17T21:11:27.450Z,20.63
2018-12-17T21:13:56.474Z,33.40
2018-12-17T21:16:25.368Z,24.60
2018-12-17T21:18:54.502Z,17.90
2018-12-17T21:21:23.699Z,15.97
2018-12-17T21:23:52.862Z,19.70
2018-12-17T21:26:21.867Z,19.23
2018-12-17T21:28:51.381Z,20.80
2018-12-17T21:31:20.418Z,22.10
2018-12-17T21:33:49.614Z,19.20
2018-12-17T21:36:18.854Z,14.87
2018-12-17T21:38:47.790Z,22.60
2018-12-17T21:41:16.985Z,17.57
2018-12-17T21:43:46.645Z,18.53
2018-12-17T21:46:15.620Z,16.67
2018-12-17T21:48:44.561Z,19.93
2018-12-17T21:51:14.135Z,20.00
2018-12-17T21:53:43.235Z,17.30
2018-12-17T21:56:13.016Z,16.60
2018-12-17T21:58:41.930Z,16.23
2018-12-17T22:01:11.236Z,21.03
2018-12-17T22:03:40.470Z,18.93
2018-12-17T22:06:09.324Z,17.10
2018-12-17T22:08:38.531Z,18.03
2018-12-17T22:11:07.837Z,22.37
2018-12-17T22:13:37.345Z,15.73
2018-12-17T22:16:06.496Z,19.77
2018-12-17T22:18:35.818Z,16.17
2018-12-17T22:21:05.627Z,18.03
2018-12-17T22:23:36.157Z,15.17
2018-12-17T22:26:05.793Z,26.07
2018-12-17T22:28:34.713Z,21.17
2018-12-17T22:31:04.400Z,21.80
2018-12-17T22:33:33.819Z,24.13
2018-12-17T22:36:04.751Z,19.47
2018-12-17T22:38:33.594Z,22.73
2018-12-17T22:41:03.082Z,14.13
2018-12-17T22:43:32.618Z,29.73
2018-12-17T22:46:08.978Z,18.03
2018-12-17T22:48:38.071Z,25.50
2018-12-17T22:51:07.134Z,19.50
2018-12-17T22:53:36.358Z,22.47
2018-12-17T22:56:05.394Z,18.70
2018-12-17T22:58:35.274Z,21.27
2018-12-17T23:01:04.417Z,24.63
2018-12-17T23:03:33.413Z,24.50
2018-12-17T23:06:02.910Z,26.33
2018-12-17T23:08:32.334Z,21.53
2018-12-17T23:11:12.810Z,19.10
2018-12-17T23:13:53.358Z,16.97
2018-12-17T23:16:34.249Z,18.50
2018-12-17T23:19:02.703Z,20.20
2018-12-17T23:21:31.661Z,26.77
2018-12-17T23:24:00.533Z,26.63
2018-12-17T23:26:29.405Z,20.23
2018-12-17T23:28:58.273Z,26.10
2018-12-17T23:31:27.325Z,22.90
2018-12-17T23:33:56.297Z,24.23
2018-12-17T23:36:25.275Z,19.70
2018-12-17T23:38:54.328Z,18.37
2018-12-17T23:41:23.261Z,28.53
2018-12-17T23:43:52.198Z,29.23
2018-12-17T23:46:21.050Z,21.13
2018-12-17T23:48:49.956Z,24.17
2018-12-17T23:51:18.798Z,26.60
2018-12-17T23:53:49.046Z,44.47
2018-12-17T23:56:17.906Z,32.47
2018-12-17T23:58:46.910Z,39.87
